Terminal Aerodrome Forecast
Issued by NWS North Platte, NE

Home | Current Version | Previous Version | Text Only | Print | Product List | Glossary On
Versions: 1 2 3 4 5 6 7 8 9 10 11 12 13 14 15 16 17 18 19 20 21 22 23
000
FTUS43 KLBF 310600 AAA
TAFLBF
TAF AMD
KLBF 310655Z 3107/0106 VRB05KT P6SM BKN100
     FM311500 32010KT P6SM SCT100
      TEMPO 3116/3118 3SM TSRA BKN040CB OVC120=

USA.gov is the U.S. government's official web portal to all federal, state and local government web resources and services.